Time;durP1;ratioP1;P1;durP2;ratioP2;P2;SDS_P1;SDS_P2;PMS_P1;PMS_P2;Temp;Humidity;BMP_temperature;BMP_pressure;BME280_temperature;BME280_humidity;BME280_pressure;Samples;Min_cycle;Max_cycle;Signal;HPM_P1;HPM_P2
2022/04/22 00:01:16;;;;;;;12.75;6.03;;;12.80;99.40;;;;;;4992600;28;20506;-89
2022/04/22 00:03:42;;;;;;;11.77;5.45;;;12.80;99.00;;;;;;4976861;28;20038;-89
2022/04/22 00:06:08;;;;;;;11.35;5.85;;;12.70;99.00;;;;;;4993222;28;20676;-89
2022/04/22 00:08:34;;;;;;;13.65;6.05;;;12.60;99.20;;;;;;4993269;28;20042;-89
2022/04/22 00:13:44;;;;;;;12.93;5.60;;;12.60;99.30;;;;;;4993050;28;20412;-89
2022/04/22 00:16:11;;;;;;;13.07;6.15;;;12.50;99.40;;;;;;4993144;28;20042;-89
2022/04/22 00:18:36;;;;;;;12.93;7.03;;;12.50;99.40;;;;;;4976764;28;20046;-89
2022/04/22 00:21:02;;;;;;;10.77;5.88;;;12.50;99.90;;;;;;4992644;28;20397;-89
2022/04/22 00:23:28;;;;;;;12.65;5.95;;;12.50;99.80;;;;;;4992714;28;20515;-89
2022/04/22 00:25:58;;;;;;;11.30;5.45;;;12.40;99.80;;;;;;4975778;28;20043;-89
2022/04/22 00:28:24;;;;;;;11.50;5.90;;;12.40;99.90;;;;;;4991872;28;20185;-89
2022/04/22 00:30:50;;;;;;;11.93;6.35;;;12.30;99.90;;;;;;4993582;28;20050;-89
2022/04/22 00:33:16;;;;;;;11.70;5.75;;;12.30;99.90;;;;;;4976250;28;20117;-89
2022/04/22 00:35:41;;;;;;;14.45;6.72;;;12.30;99.90;;;;;;4992203;28;20170;-89
2022/04/22 00:38:07;;;;;;;13.95;6.35;;;12.30;99.90;;;;;;4992765;28;20065;-88
2022/04/22 00:40:33;;;;;;;13.07;7.55;;;12.30;99.90;;;;;;4992261;28;20132;-89
2022/04/22 00:42:59;;;;;;;13.13;5.75;;;12.30;99.90;;;;;;4992433;28;20148;-89
2022/04/22 00:45:24;;;;;;;11.43;6.13;;;12.30;99.90;;;;;;4976319;28;20039;-89
2022/04/22 00:47:50;;;;;;;11.38;6.03;;;12.20;99.90;;;;;;4992284;28;20558;-89
2022/04/22 00:50:16;;;;;;;12.43;6.97;;;12.20;99.90;;;;;;4991875;28;20550;-89
2022/04/22 00:52:42;;;;;;;13.98;6.13;;;12.10;99.90;;;;;;4976027;28;20038;-89
2022/04/22 00:55:09;;;;;;;14.05;7.32;;;12.10;99.90;;;;;;4991930;28;20038;-88
2022/04/22 00:57:35;;;;;;;14.27;6.78;;;12.10;99.90;;;;;;4992384;28;20407;-89
2022/04/22 01:00:03;;;;;;;17.60;7.82;;;12.10;99.90;;;;;;4991922;28;20488;-89
2022/04/22 01:02:28;;;;;;;11.68;6.47;;;12.00;99.90;;;;;;4991893;28;20454;-89
2022/04/22 01:10:22;;;;;;;14.02;7.68;;;11.90;99.90;;;;;;4991808;28;20053;-89
2022/04/22 01:12:48;;;;;;;15.05;7.35;;;11.90;99.90;;;;;;4991719;28;20038;-89
2022/04/22 01:15:13;;;;;;;14.18;7.60;;;11.90;99.90;;;;;;4975484;28;20045;-89
2022/04/22 01:17:39;;;;;;;18.95;8.02;;;11.80;99.90;;;;;;4975493;28;20046;-89
2022/04/22 01:20:05;;;;;;;15.38;8.02;;;11.80;99.90;;;;;;4991515;28;20042;-88
2022/04/22 01:22:31;;;;;;;13.93;7.70;;;11.70;99.90;;;;;;4991740;28;20034;-89
2022/04/22 01:25:02;;;;;;;18.58;8.05;;;11.70;99.90;;;;;;4975574;28;20053;-89
2022/04/22 01:27:29;;;;;;;13.82;8.15;;;11.70;99.90;;;;;;4990661;28;20514;-89
2022/04/22 01:29:56;;;;;;;17.05;8.10;;;11.60;99.90;;;;;;4991236;28;20034;-89
2022/04/22 01:32:23;;;;;;;16.55;8.20;;;11.50;99.90;;;;;;4991589;28;20046;-89
2022/04/22 01:34:48;;;;;;;14.73;8.30;;;11.50;99.90;;;;;;4975518;28;20045;-89
2022/04/22 01:37:14;;;;;;;16.48;8.23;;;11.40;99.90;;;;;;4975239;28;20046;-89
2022/04/22 01:39:39;;;;;;;17.13;9.10;;;11.40;99.90;;;;;;4991370;28;20125;-89
2022/04/22 01:42:06;;;;;;;19.17;9.98;;;11.30;99.90;;;;;;4974825;28;20042;-89
2022/04/22 01:44:35;;;;;;;20.02;9.85;;;11.30;99.90;;;;;;4975334;28;20068;-89
2022/04/22 01:47:02;;;;;;;15.55;8.63;;;11.20;99.90;;;;;;4974835;28;20038;-88
2022/04/22 01:49:27;;;;;;;18.40;9.70;;;11.20;99.90;;;;;;4991227;28;20045;-89
2022/04/22 01:51:54;;;;;;;16.35;9.32;;;11.10;99.90;;;;;;4975020;28;20039;-88
2022/04/22 01:54:20;;;;;;;18.98;9.77;;;11.10;99.90;;;;;;4991389;28;20422;-89
2022/04/22 01:56:45;;;;;;;20.33;10.20;;;11.00;99.90;;;;;;4974688;28;20045;-89
2022/04/22 01:59:11;;;;;;;19.38;10.05;;;11.00;99.90;;;;;;4974873;28;20099;-89
2022/04/22 02:01:37;;;;;;;18.38;9.38;;;11.00;99.90;;;;;;4990911;28;20034;-89
2022/04/22 02:04:02;;;;;;;18.85;13.85;;;11.00;99.90;;;;;;4990994;28;20523;-88
2022/04/22 02:06:28;;;;;;;20.10;9.70;;;11.00;99.90;;;;;;4991057;28;20046;-89
2022/04/22 02:08:54;;;;;;;18.83;9.55;;;11.00;99.90;;;;;;4990974;28;20118;-89
2022/04/22 02:11:20;;;;;;;17.58;10.82;;;10.90;99.90;;;;;;4990655;28;20125;-88
2022/04/22 02:13:46;;;;;;;20.48;10.10;;;10.90;99.90;;;;;;4991146;28;20065;-89
2022/04/22 02:16:12;;;;;;;20.35;10.68;;;10.90;99.90;;;;;;4991017;28;20046;-88
2022/04/22 02:18:39;;;;;;;20.70;10.77;;;10.90;99.90;;;;;;4990521;28;20046;-89
2022/04/22 02:21:06;;;;;;;19.83;11.00;;;10.80;99.90;;;;;;4990676;28;20046;-89
2022/04/22 02:23:33;;;;;;;18.17;10.82;;;10.80;99.90;;;;;;4974886;28;20061;-89
2022/04/22 02:25:59;;;;;;;18.38;10.13;;;10.80;99.90;;;;;;4974266;28;20042;-89
2022/04/22 02:28:34;;;;;;;20.02;9.88;;;10.80;99.90;;;;;;4990032;28;20499;-88
2022/04/22 02:31:08;;;;;;;19.55;9.00;;;10.70;99.90;;;;;;4990815;28;20068;-89
2022/04/22 02:33:35;;;;;;;18.52;9.48;;;10.70;99.90;;;;;;4974801;28;20042;-89
2022/04/22 02:36:01;;;;;;;17.00;9.15;;;10.70;99.90;;;;;;4990788;28;20053;-89
2022/04/22 02:38:30;;;;;;;17.63;8.88;;;10.70;99.90;;;;;;4974286;28;20046;-89
2022/04/22 02:46:27;;;;;;;19.20;9.07;;;10.60;99.90;;;;;;4990666;28;20104;-88
2022/04/22 02:48:57;;;;;;;15.30;9.13;;;10.50;99.90;;;;;;4990053;28;20050;-89
2022/04/22 02:51:23;;;;;;;18.20;9.32;;;10.50;99.90;;;;;;4990325;28;20045;-89
2022/04/22 02:53:49;;;;;;;16.27;8.98;;;10.50;99.90;;;;;;4974498;28;20034;-89
2022/04/22 02:56:16;;;;;;;15.45;8.90;;;10.50;99.90;;;;;;4990404;28;20165;-89
2022/04/22 02:58:42;;;;;;;18.00;8.15;;;10.50;99.90;;;;;;4974321;28;20053;-88
2022/04/22 03:01:07;;;;;;;17.90;8.93;;;10.40;99.90;;;;;;4973915;28;20038;-88
2022/04/22 03:03:33;;;;;;;15.52;8.32;;;10.40;99.90;;;;;;4990370;28;20140;-88
2022/04/22 03:05:59;;;;;;;18.67;9.57;;;10.30;99.90;;;;;;4974127;28;20044;-88
2022/04/22 03:08:24;;;;;;;15.77;8.85;;;10.30;99.90;;;;;;4974480;28;20480;-88
2022/04/22 03:10:51;;;;;;;18.60;8.93;;;10.30;99.90;;;;;;4973907;28;20041;-88
2022/04/22 03:13:16;;;;;;;19.30;9.30;;;10.30;99.90;;;;;;4973033;28;21693;-88
2022/04/22 03:15:42;;;;;;;18.02;8.65;;;10.20;99.90;;;;;;4974286;28;20034;-88
2022/04/22 03:18:09;;;;;;;15.35;7.65;;;10.20;99.90;;;;;;4990144;28;20046;-88
2022/04/22 03:20:34;;;;;;;15.43;8.15;;;10.20;99.90;;;;;;4989909;28;20042;-88
2022/04/22 03:23:00;;;;;;;15.70;8.40;;;10.10;99.90;;;;;;4990426;28;20089;-89
2022/04/22 03:25:25;;;;;;;19.65;8.38;;;10.10;99.90;;;;;;4990278;28;20551;-89
2022/04/22 03:27:51;;;;;;;16.23;8.23;;;10.10;99.90;;;;;;4990439;28;20046;-89
2022/04/22 03:30:17;;;;;;;16.45;8.85;;;10.10;99.90;;;;;;4976102;28;20043;-89
2022/04/22 03:32:43;;;;;;;17.67;9.20;;;10.10;99.90;;;;;;4993848;28;20571;-89
2022/04/22 03:35:09;;;;;;;18.25;7.68;;;10.10;99.90;;;;;;4977572;28;20141;-89
2022/04/22 03:37:35;;;;;;;16.58;8.05;;;10.00;99.90;;;;;;4977641;28;20049;-89
2022/04/22 03:40:02;;;;;;;17.52;8.52;;;10.00;99.90;;;;;;4993167;28;20042;-89
2022/04/22 03:42:29;;;;;;;16.58;7.95;;;10.00;99.90;;;;;;4993607;28;20049;-89
2022/04/22 03:44:56;;;;;;;20.17;7.63;;;10.00;99.90;;;;;;4977840;28;20681;-89
2022/04/22 03:47:22;;;;;;;13.73;8.32;;;9.90;99.90;;;;;;4977216;28;20133;-89
2022/04/22 03:49:48;;;;;;;16.10;7.75;;;9.90;99.90;;;;;;4993545;28;20129;-89
2022/04/22 03:52:14;;;;;;;14.88;7.53;;;9.90;99.90;;;;;;4977280;28;20376;-89
2022/04/22 03:54:39;;;;;;;15.68;7.35;;;9.90;99.90;;;;;;4993691;28;20467;-89
2022/04/22 03:59:49;;;;;;;14.05;6.75;;;9.80;99.90;;;;;;4993086;28;20049;-89
2022/04/22 04:02:14;;;;;;;16.50;7.25;;;9.70;99.90;;;;;;4993019;28;20051;-89
2022/04/22 04:04:40;;;;;;;12.68;6.72;;;9.70;99.90;;;;;;4993252;28;20053;-89
2022/04/22 04:07:05;;;;;;;13.35;7.15;;;9.70;99.90;;;;;;4993198;28;20046;-89
2022/04/22 04:17:44;;;;;;;15.52;6.43;;;9.60;99.90;;;;;;4992878;28;20046;-90
2022/04/22 04:25:41;;;;;;;13.93;6.55;;;9.50;99.90;;;;;;4994344;28;20116;-90
2022/04/22 04:28:10;;;;;;;15.48;7.13;;;9.60;99.90;;;;;;5003257;28;20086;-89
2022/04/22 04:30:40;;;;;;;14.50;6.25;;;9.60;99.90;;;;;;5012328;28;20022;-89
2022/04/22 04:33:07;;;;;;;11.52;5.20;;;9.60;99.90;;;;;;4991558;28;20042;-89
2022/04/22 04:35:35;;;;;;;16.05;6.72;;;9.60;99.90;;;;;;4992664;28;20049;-89
2022/04/22 04:38:01;;;;;;;13.18;6.05;;;9.60;99.90;;;;;;4992580;28;20042;-90
2022/04/22 04:40:26;;;;;;;14.38;6.38;;;9.60;99.90;;;;;;4990818;28;20046;-90
2022/04/22 04:42:52;;;;;;;12.18;5.07;;;9.60;99.90;;;;;;4991986;28;20046;-89
2022/04/22 04:45:19;;;;;;;10.98;5.25;;;9.60;99.90;;;;;;4975976;28;20157;-89
2022/04/22 04:47:45;;;;;;;14.48;5.47;;;9.60;99.90;;;;;;4990958;28;20060;-88
2022/04/22 04:50:12;;;;;;;15.20;5.90;;;9.60;99.90;;;;;;4975543;28;20512;-89
2022/04/22 04:52:38;;;;;;;12.57;5.90;;;9.60;99.90;;;;;;4992582;28;20073;-89
2022/04/22 04:55:09;;;;;;;12.50;5.30;;;9.60;99.90;;;;;;4992469;28;20550;-89
2022/04/22 04:57:35;;;;;;;12.40;5.80;;;9.60;99.90;;;;;;4992284;28;20396;-88
2022/04/22 05:00:02;;;;;;;11.75;5.28;;;9.60;99.90;;;;;;4975982;28;20428;-89
2022/04/22 05:02:28;;;;;;;10.40;5.00;;;9.60;99.90;;;;;;4991839;28;20048;-89
2022/04/22 05:04:53;;;;;;;11.90;4.90;;;9.60;99.90;;;;;;4992097;28;20477;-89
2022/04/22 05:07:20;;;;;;;10.57;4.75;;;9.60;99.90;;;;;;4990639;28;20046;-89
2022/04/22 05:09:46;;;;;;;16.40;5.10;;;9.60;99.90;;;;;;4991746;28;20097;-88
2022/04/22 05:12:11;;;;;;;11.25;4.90;;;9.70;99.90;;;;;;4975222;28;20042;-88
2022/04/22 05:14:37;;;;;;;11.88;4.45;;;9.60;99.90;;;;;;4991755;28;20125;-88
2022/04/22 05:17:03;;;;;;;10.77;4.95;;;9.60;99.90;;;;;;4975652;28;20069;-88
2022/04/22 05:19:29;;;;;;;10.40;4.68;;;9.70;99.90;;;;;;4991887;28;20046;-89
2022/04/22 05:21:55;;;;;;;12.95;5.35;;;9.70;99.90;;;;;;4991560;28;20408;-89
2022/04/22 05:24:21;;;;;;;14.18;4.93;;;9.70;99.90;;;;;;4991710;28;20522;-90
2022/04/22 05:26:47;;;;;;;11.52;4.72;;;9.70;99.90;;;;;;4990691;28;20507;-89
2022/04/22 05:34:41;;;;;;;9.88;4.13;;;9.70;99.90;;;;;;4991682;28;20710;-90
2022/04/22 05:37:06;;;;;;;10.77;4.63;;;9.70;99.90;;;;;;4991378;28;20038;-90
2022/04/22 05:39:32;;;;;;;13.70;5.30;;;9.70;99.90;;;;;;4975311;28;20118;-89
2022/04/22 05:42:00;;;;;;;10.00;4.35;;;9.70;99.90;;;;;;4990500;28;20213;-89
2022/04/22 05:44:26;;;;;;;10.55;4.05;;;9.70;99.90;;;;;;4974628;28;20042;-89
2022/04/22 05:46:51;;;;;;;10.10;4.43;;;9.70;99.90;;;;;;4990799;28;20042;-88
2022/04/22 05:49:18;;;;;;;11.07;4.38;;;9.80;99.90;;;;;;4991321;28;20743;-88
2022/04/22 05:51:43;;;;;;;10.45;4.20;;;9.80;99.90;;;;;;4974842;28;20038;-88
2022/04/22 05:54:09;;;;;;;12.80;4.53;;;9.90;99.90;;;;;;4992609;28;20046;-88
2022/04/22 05:56:35;;;;;;;10.15;4.28;;;9.90;99.90;;;;;;4991142;28;20046;-88
2022/04/22 05:59:02;;;;;;;9.75;3.80;;;10.00;99.90;;;;;;4991192;28;20125;-88
2022/04/22 06:01:28;;;;;;;9.50;4.25;;;10.10;99.90;;;;;;4988049;28;20073;-88
2022/04/22 06:03:53;;;;;;;11.57;4.43;;;10.10;99.90;;;;;;4974809;28;20053;-87
2022/04/22 06:06:19;;;;;;;10.23;4.18;;;10.20;99.90;;;;;;4990647;28;20042;-88
2022/04/22 06:11:28;;;;;;;8.27;3.75;;;10.30;99.90;;;;;;4990298;28;20128;-88
2022/04/22 06:13:54;;;;;;;9.00;4.13;;;10.30;99.90;;;;;;4991094;28;20118;-88
2022/04/22 06:16:20;;;;;;;9.43;3.50;;;10.30;99.90;;;;;;4991157;28;20038;-87
2022/04/22 06:18:45;;;;;;;8.88;3.72;;;10.30;99.90;;;;;;4974743;28;20535;-88
2022/04/22 06:21:11;;;;;;;9.88;3.90;;;10.30;99.90;;;;;;4974215;28;20562;-88
2022/04/22 06:23:36;;;;;;;8.82;4.22;;;10.40;99.90;;;;;;4973358;28;20706;-88
2022/04/22 06:26:02;;;;;;;11.95;3.85;;;10.40;99.90;;;;;;4990020;28;20049;-88
2022/04/22 06:28:27;;;;;;;9.00;4.00;;;10.50;99.90;;;;;;4990405;28;20039;-88
2022/04/22 06:30:53;;;;;;;9.27;3.83;;;10.50;99.90;;;;;;4990244;28;20136;-87
2022/04/22 06:33:19;;;;;;;10.00;4.07;;;10.60;99.90;;;;;;4990483;28;20050;-88
2022/04/22 06:35:45;;;;;;;9.82;4.10;;;10.60;99.90;;;;;;4990567;28;20065;-88
2022/04/22 06:38:14;;;;;;;9.68;4.13;;;10.70;99.90;;;;;;4974439;28;20042;-87
2022/04/22 06:46:09;;;;;;;8.60;3.95;;;10.80;99.90;;;;;;4989606;28;20060;-88
2022/04/22 06:48:35;;;;;;;9.10;4.63;;;10.90;99.90;;;;;;4989685;28;20388;-88
2022/04/22 06:51:02;;;;;;;9.52;4.50;;;10.90;99.90;;;;;;4973912;28;20042;-88
2022/04/22 06:53:28;;;;;;;8.88;4.18;;;11.00;99.90;;;;;;4990617;28;20034;-88
2022/04/22 06:55:58;;;;;;;11.73;4.05;;;11.10;99.90;;;;;;4990591;28;20054;-88
2022/04/22 06:58:25;;;;;;;8.82;4.50;;;11.10;99.90;;;;;;4990343;28;20574;-88
2022/04/22 07:00:51;;;;;;;10.35;3.78;;;11.20;99.90;;;;;;4990088;28;20495;-88
2022/04/22 07:03:17;;;;;;;9.02;4.30;;;11.30;99.90;;;;;;4989723;28;20046;-88
2022/04/22 07:05:45;;;;;;;10.90;4.03;;;11.30;99.90;;;;;;4993023;28;20081;-88
2022/04/22 07:08:14;;;;;;;11.45;4.13;;;11.30;99.90;;;;;;4977993;28;20038;-88
2022/04/22 07:10:45;;;;;;;11.07;4.25;;;11.30;99.90;;;;;;4977380;28;20073;-89
2022/04/22 07:13:12;;;;;;;9.52;4.20;;;11.40;99.90;;;;;;4994297;28;20439;-88
2022/04/22 07:15:39;;;;;;;9.65;4.00;;;11.40;99.60;;;;;;4993984;28;20072;-88
2022/04/22 07:18:05;;;;;;;11.27;4.35;;;11.50;99.40;;;;;;4993852;28;20049;-87
2022/04/22 07:20:31;;;;;;;10.27;3.65;;;11.50;99.10;;;;;;4993725;28;20046;-88
2022/04/22 07:22:59;;;;;;;12.73;4.55;;;11.50;99.10;;;;;;4993206;28;20069;-88
2022/04/22 07:25:26;;;;;;;9.52;4.03;;;11.60;99.40;;;;;;4977350;28;20042;-88
2022/04/22 07:27:52;;;;;;;10.93;4.57;;;11.70;99.20;;;;;;4994082;28;20038;-88
2022/04/22 07:30:20;;;;;;;12.30;4.63;;;11.80;99.30;;;;;;4993302;28;20534;-89
2022/04/22 07:32:46;;;;;;;10.88;4.07;;;11.90;99.10;;;;;;4994034;28;20121;-88
2022/04/22 07:35:12;;;;;;;11.90;5.28;;;12.00;99.20;;;;;;4993579;28;20381;-88
2022/04/22 07:37:43;;;;;;;8.40;4.13;;;12.00;98.70;;;;;;4994103;28;20184;-89
2022/04/22 07:40:09;;;;;;;10.70;4.45;;;12.00;98.20;;;;;;4992953;28;20042;-89
2022/04/22 07:42:36;;;;;;;9.80;4.22;;;12.00;98.20;;;;;;4993402;28;20109;-88
2022/04/22 07:47:48;;;;;;;9.60;4.20;;;12.20;98.00;;;;;;4993644;28;20416;-88
2022/04/22 07:50:14;;;;;;;10.27;3.58;;;12.20;97.40;;;;;;4976772;28;20520;-88
2022/04/22 07:52:42;;;;;;;11.57;4.85;;;12.30;97.30;;;;;;4993235;28;20034;-89
2022/04/22 07:55:08;;;;;;;9.80;3.75;;;12.30;97.40;;;;;;4993201;28;20416;-88
2022/04/22 07:57:33;;;;;;;9.35;5.30;;;12.40;97.30;;;;;;4993397;28;20042;-88
2022/04/22 07:59:59;;;;;;;11.65;4.60;;;12.50;96.50;;;;;;4977005;28;20050;-88
2022/04/22 08:02:24;;;;;;;11.23;4.30;;;12.60;96.70;;;;;;4977240;28;20141;-88
2022/04/22 08:04:51;;;;;;;9.60;4.15;;;12.70;97.00;;;;;;4993217;28;20038;-89
2022/04/22 08:07:18;;;;;;;10.13;4.53;;;12.80;96.50;;;;;;4993158;28;20046;-89
2022/04/22 08:09:45;;;;;;;8.95;3.78;;;12.90;96.40;;;;;;4976750;28;20038;-89
2022/04/22 08:12:12;;;;;;;9.88;4.25;;;12.90;96.20;;;;;;4992496;28;20492;-90
2022/04/22 08:14:38;;;;;;;9.73;4.40;;;13.10;95.90;;;;;;4992921;28;20415;-89
2022/04/22 08:17:03;;;;;;;8.57;4.03;;;13.10;95.70;;;;;;4992477;28;20291;-89
2022/04/22 08:19:29;;;;;;;11.70;4.03;;;13.20;95.50;;;;;;4993003;28;20069;-90
2022/04/22 08:21:55;;;;;;;8.63;3.50;;;13.30;95.70;;;;;;4976181;28;20038;-90
2022/04/22 08:24:20;;;;;;;9.32;3.83;;;13.40;95.20;;;;;;4976178;28;20038;-89
2022/04/22 08:26:46;;;;;;;8.93;3.60;;;13.50;95.20;;;;;;4991941;28;20039;-89
2022/04/22 08:29:11;;;;;;;9.63;3.38;;;13.50;94.30;;;;;;4992585;28;20439;-90
2022/04/22 08:31:37;;;;;;;7.70;3.67;;;13.60;94.20;;;;;;4999654;28;20408;-89
2022/04/22 08:34:03;;;;;;;9.75;3.65;;;13.70;93.70;;;;;;4980431;28;20088;-90
2022/04/22 08:36:29;;;;;;;8.18;3.72;;;13.80;93.40;;;;;;4992595;28;20049;-90
2022/04/22 08:38:57;;;;;;;7.85;3.00;;;13.90;93.70;;;;;;5023537;28;20442;-90
2022/04/22 08:41:22;;;;;;;7.97;3.33;;;13.90;93.50;;;;;;4990854;28;20096;-90
2022/04/22 08:43:51;;;;;;;13.45;3.45;;;14.00;92.90;;;;;;5008916;28;20046;-90
2022/04/22 08:51:45;;;;;;;8.10;2.97;;;14.30;90.50;;;;;;4991834;28;20042;-89
2022/04/22 08:54:13;;;;;;;7.80;3.10;;;14.40;90.30;;;;;;4992187;28;20042;-90
2022/04/22 08:56:39;;;;;;;9.50;3.10;;;14.50;90.10;;;;;;4976106;28;20050;-89
2022/04/22 08:59:05;;;;;;;9.35;3.28;;;14.60;88.20;;;;;;4989432;28;20046;-90
2022/04/22 09:01:31;;;;;;;9.95;3.30;;;14.60;85.20;;;;;;4975616;28;20384;-89
2022/04/22 09:03:57;;;;;;;7.55;3.20;;;14.60;84.50;;;;;;4992180;28;20046;-89
2022/04/22 09:06:25;;;;;;;8.82;2.92;;;14.70;85.10;;;;;;4975765;28;20056;-90
2022/04/22 09:08:51;;;;;;;8.15;3.10;;;14.80;82.20;;;;;;4992102;28;20076;-89
2022/04/22 09:11:17;;;;;;;8.48;3.50;;;14.90;82.70;;;;;;4991510;28;20042;-90
2022/04/22 09:13:43;;;;;;;9.05;3.10;;;15.00;82.00;;;;;;4991763;28;20046;-90
2022/04/22 09:16:18;;;;;;;9.35;2.90;;;15.10;81.00;;;;;;4991669;28;20048;-90
2022/04/22 09:18:45;;;;;;;7.90;2.95;;;15.20;77.80;;;;;;4975600;28;20056;-90
2022/04/22 09:21:17;;;;;;;9.10;2.92;;;15.20;77.90;;;;;;4991895;28;20128;-90
2022/04/22 09:23:45;;;;;;;8.38;3.00;;;15.30;78.90;;;;;;4975537;28;20038;-89
2022/04/22 09:26:25;;;;;;;7.20;3.03;;;15.40;77.80;;;;;;4979896;28;20049;-90
2022/04/22 09:28:57;;;;;;;8.05;2.83;;;15.50;76.80;;;;;;5002614;28;20027;-90
2022/04/22 09:31:25;;;;;;;8.82;3.08;;;15.60;76.60;;;;;;5009340;28;20071;-89
2022/04/22 09:33:51;;;;;;;7.78;3.30;;;15.70;76.30;;;;;;5009453;28;20026;-89
2022/04/22 09:44:52;;;;;;;9.80;2.92;;;16.20;67.20;;;;;;4991524;28;20137;-89
2022/04/22 09:47:18;;;;;;;8.60;2.85;;;16.30;66.80;;;;;;4974434;28;20053;-89
2022/04/22 09:49:44;;;;;;;8.73;3.20;;;16.40;65.10;;;;;;4985573;28;20138;-89
2022/04/22 09:52:10;;;;;;;8.07;2.75;;;16.50;65.40;;;;;;4974746;28;20117;-89
2022/04/22 09:54:38;;;;;;;9.07;2.50;;;16.60;64.60;;;;;;4982556;28;20077;-89
2022/04/22 09:57:04;;;;;;;8.57;3.00;;;16.60;62.90;;;;;;4993950;28;20041;-89
2022/04/22 09:59:32;;;;;;;11.02;3.00;;;16.70;62.70;;;;;;5010793;28;20042;-89
2022/04/22 10:02:04;;;;;;;8.18;2.78;;;16.80;62.70;;;;;;5010246;28;20052;-88
2022/04/22 10:04:31;;;;;;;8.15;3.05;;;16.90;62.40;;;;;;5001261;28;20088;-89
2022/04/22 10:07:00;;;;;;;9.30;2.85;;;17.00;61.70;;;;;;4990868;28;20153;-88
2022/04/22 10:09:27;;;;;;;8.93;2.80;;;17.00;61.00;;;;;;4990804;28;20125;-89
2022/04/22 10:11:55;;;;;;;8.18;3.00;;;17.20;60.90;;;;;;4990540;28;20094;-89
2022/04/22 10:14:40;;;;;;;7.22;2.97;;;17.30;61.90;;;;;;4990543;28;20045;-89
2022/04/22 10:17:06;;;;;;;7.95;2.67;;;17.50;61.40;;;;;;4990743;28;20037;-89
2022/04/22 10:19:33;;;;;;;7.55;3.10;;;17.60;62.50;;;;;;4990632;28;20043;-89
2022/04/22 10:22:00;;;;;;;8.27;3.13;;;17.80;61.60;;;;;;4990709;28;20100;-89
2022/04/22 10:24:26;;;;;;;10.35;3.45;;;17.90;61.20;;;;;;4990733;28;20038;-90
2022/04/22 10:26:53;;;;;;;6.95;2.67;;;18.00;61.70;;;;;;4990049;28;20510;-90
2022/04/22 10:29:19;;;;;;;7.82;3.08;;;18.10;59.80;;;;;;4991986;28;20431;-89
2022/04/22 10:31:45;;;;;;;7.72;3.38;;;18.10;58.40;;;;;;4990257;28;20495;-89
2022/04/22 10:34:11;;;;;;;8.82;3.40;;;18.20;57.70;;;;;;4990650;28;20514;-90
2022/04/22 10:36:38;;;;;;;7.55;3.20;;;18.20;58.00;;;;;;4990509;28;20042;-90
2022/04/22 10:39:04;;;;;;;6.72;2.80;;;18.20;58.20;;;;;;4992409;28;20042;-90
2022/04/22 10:41:35;;;;;;;8.43;3.30;;;18.30;58.20;;;;;;4995229;28;20038;-90
2022/04/22 10:49:37;;;;;;;12.85;4.82;;;18.50;58.00;;;;;;5001176;28;20062;-90
2022/04/22 10:52:14;;;;;;;9.48;4.25;;;18.60;57.60;;;;;;5002109;28;20053;-90
2022/04/22 10:54:52;;;;;;;8.88;3.70;;;18.70;56.20;;;;;;5002881;28;20069;-90
2022/04/22 10:57:19;;;;;;;8.95;3.70;;;18.80;56.70;;;;;;4995292;28;20053;-90
2022/04/22 10:59:45;;;;;;;7.72;3.40;;;18.90;56.60;;;;;;5026996;28;20752;-90
2022/04/22 11:02:37;;;;;;;8.32;3.55;;;19.00;57.20;;;;;;4994156;28;20400;-90
2022/04/22 11:05:18;;;;;;;8.13;3.42;;;19.00;56.30;;;;;;5003228;28;20056;-91
2022/04/22 11:07:50;;;;;;;10.15;4.07;;;19.10;56.10;;;;;;4997260;28;20053;-90
2022/04/22 11:10:16;;;;;;;9.60;3.50;;;19.20;57.50;;;;;;5013200;28;20038;-91
2022/04/22 11:12:56;;;;;;;8.35;3.22;;;19.40;57.70;;;;;;5013343;28;20128;-90
2022/04/22 11:15:44;;;;;;;9.57;3.70;;;19.50;56.60;;;;;;5012531;28;20065;-90
2022/04/22 11:18:14;;;;;;;8.05;3.47;;;19.60;56.30;;;;;;5013173;28;20042;-91
2022/04/22 11:20:44;;;;;;;9.18;3.70;;;19.70;54.80;;;;;;4996956;28;20404;-91
2022/04/22 11:23:14;;;;;;;7.97;3.20;;;19.90;55.30;;;;;;4997378;28;20074;-91
2022/04/22 11:25:41;;;;;;;8.25;3.95;;;20.10;54.30;;;;;;4996999;28;20129;-91
2022/04/22 11:28:08;;;;;;;8.75;4.03;;;20.10;53.20;;;;;;4997289;28;20042;-90
2022/04/22 11:30:34;;;;;;;7.78;3.53;;;20.20;53.00;;;;;;5013477;28;20435;-90
2022/04/22 11:33:16;;;;;;;11.77;3.72;;;20.30;52.90;;;;;;5013190;28;20487;-90
2022/04/22 11:35:41;;;;;;;9.40;4.13;;;20.40;53.20;;;;;;5010490;28;20132;-90
2022/04/22 11:38:07;;;;;;;8.75;3.20;;;20.40;53.60;;;;;;4977042;28;20138;-90
2022/04/22 11:40:40;;;;;;;9.25;3.85;;;20.60;53.00;;;;;;4992844;28;20077;-90
2022/04/22 11:43:10;;;;;;;7.82;3.50;;;20.80;52.90;;;;;;4977410;28;20045;-90
2022/04/22 11:45:41;;;;;;;8.32;3.88;;;20.90;52.30;;;;;;4977132;28;20640;-90
2022/04/22 11:48:08;;;;;;;9.60;3.38;;;21.10;52.20;;;;;;4977248;28;20054;-91
2022/04/22 11:50:42;;;;;;;8.25;3.67;;;21.20;51.40;;;;;;4976456;28;20551;-90
2022/04/22 11:53:14;;;;;;;9.85;3.75;;;21.30;51.20;;;;;;4993678;28;20512;-91
2022/04/22 11:55:43;;;;;;;9.88;3.85;;;21.50;50.20;;;;;;4993734;28;20038;-90
2022/04/22 11:58:13;;;;;;;9.63;4.13;;;21.50;49.40;;;;;;4993718;28;20050;-90
2022/04/22 12:06:23;;;;;;;9.70;3.60;;;21.80;49.30;;;;;;4993147;28;20038;-90
2022/04/22 12:09:05;;;;;;;11.85;4.15;;;22.00;48.80;;;;;;4990778;28;20065;-90
2022/04/22 12:11:39;;;;;;;9.23;4.03;;;22.10;48.70;;;;;;4992747;28;20065;-90
2022/04/22 12:14:05;;;;;;;9.05;3.97;;;22.10;48.10;;;;;;4977128;28;20050;-90
2022/04/22 12:16:32;;;;;;;9.75;3.88;;;22.00;47.40;;;;;;4976421;28;20041;-90
2022/04/22 12:19:00;;;;;;;12.70;4.13;;;22.00;47.90;;;;;;5010841;28;20045;-90
2022/04/22 12:21:26;;;;;;;9.57;4.20;;;22.10;48.50;;;;;;5002018;28;20034;-90
2022/04/22 12:23:57;;;;;;;7.85;3.90;;;21.90;47.60;;;;;;5000890;28;20524;-90
2022/04/22 12:26:30;;;;;;;9.10;4.10;;;21.90;47.60;;;;;;4992232;28;20084;-90
2022/04/22 12:29:14;;;;;;;9.07;4.15;;;21.80;47.00;;;;;;4992514;28;20052;-91
2022/04/22 12:31:44;;;;;;;9.05;4.50;;;21.80;47.60;;;;;;4992027;28;20117;-90
2022/04/22 12:34:24;;;;;;;10.77;4.60;;;21.80;47.30;;;;;;4993001;28;20034;-91
2022/04/22 12:36:52;;;;;;;8.55;4.47;;;21.90;47.40;;;;;;4992010;28;20042;-91
2022/04/22 12:39:41;;;;;;;8.80;4.60;;;21.70;47.50;;;;;;4991162;28;20042;-90
2022/04/22 12:42:19;;;;;;;10.98;4.70;;;21.70;47.90;;;;;;4974756;28;20049;-91
2022/04/22 12:53:34;;;;;;;13.13;5.35;;;21.90;48.10;;;;;;4992041;28;20518;-90
2022/04/22 12:56:05;;;;;;;9.07;4.57;;;21.90;47.30;;;;;;4975989;28;20034;-89
2022/04/22 12:58:32;;;;;;;13.25;5.47;;;22.20;47.80;;;;;;4992057;28;20042;-90
2022/04/22 13:00:58;;;;;;;8.88;4.82;;;22.50;47.90;;;;;;4991152;28;20073;-90
2022/04/22 13:03:36;;;;;;;8.93;4.70;;;22.70;47.40;;;;;;4991303;28;20030;-91
2022/04/22 13:06:02;;;;;;;11.68;5.28;;;23.00;47.10;;;;;;4975793;28;20407;-90
2022/04/22 13:08:27;;;;;;;10.75;4.93;;;23.20;46.40;;;;;;4991993;28;20122;-90
2022/04/22 13:10:57;;;;;;;10.77;5.00;;;23.20;46.50;;;;;;4991719;28;20108;-90
2022/04/22 13:13:23;;;;;;;12.93;5.13;;;23.00;45.40;;;;;;4992700;28;20085;-90
2022/04/22 13:15:49;;;;;;;11.95;5.47;;;22.70;45.60;;;;;;4975905;28;20384;-89
2022/04/22 13:18:14;;;;;;;11.77;5.65;;;22.60;46.60;;;;;;4993028;28;20039;-90
2022/04/22 13:20:40;;;;;;;8.85;5.50;;;22.60;46.70;;;;;;4992895;28;20456;-89
2022/04/22 13:23:05;;;;;;;11.80;5.70;;;22.40;46.60;;;;;;4991705;28;20558;-90
2022/04/22 13:25:31;;;;;;;11.98;5.22;;;22.40;46.20;;;;;;4992889;28;20095;-90
2022/04/22 13:27:56;;;;;;;12.13;5.30;;;22.20;46.50;;;;;;4990604;28;20046;-90
2022/04/22 13:30:22;;;;;;;11.18;5.53;;;22.20;46.90;;;;;;4992323;28;20049;-90
2022/04/22 13:32:48;;;;;;;12.00;5.80;;;22.20;47.30;;;;;;4991374;28;20089;-90
2022/04/22 13:35:14;;;;;;;11.57;5.13;;;22.30;46.90;;;;;;4991325;28;20408;-89
2022/04/22 13:37:39;;;;;;;10.38;5.18;;;22.20;46.60;;;;;;4991223;28;20121;-90
2022/04/22 13:40:05;;;;;;;10.27;5.05;;;22.20;46.60;;;;;;4991244;28;20053;-90
2022/04/22 13:42:31;;;;;;;13.18;4.47;;;22.30;48.00;;;;;;4991016;28;20373;-90
2022/04/22 13:53:09;;;;;;;8.98;4.88;;;22.60;47.10;;;;;;4990449;28;20088;-90
2022/04/22 13:55:36;;;;;;;9.18;4.55;;;22.80;46.90;;;;;;4991313;28;20082;-89
2022/04/22 13:58:02;;;;;;;9.93;5.25;;;22.90;46.20;;;;;;4991434;28;20093;-90
2022/04/22 14:00:28;;;;;;;8.60;4.25;;;23.00;45.40;;;;;;4991214;28;20038;-90
2022/04/22 14:02:55;;;;;;;9.23;4.53;;;23.10;45.00;;;;;;4990898;28;20488;-90
2022/04/22 14:05:21;;;;;;;9.48;4.60;;;23.20;45.20;;;;;;5005713;28;20030;-89
2022/04/22 14:07:50;;;;;;;11.23;4.70;;;23.20;44.80;;;;;;5051248;28;20038;-90
2022/04/22 14:10:17;;;;;;;14.02;4.72;;;23.30;44.20;;;;;;5028957;28;20055;-90
2022/04/22 14:12:43;;;;;;;14.13;4.78;;;23.40;44.60;;;;;;5002832;28;20038;-89